createdAt,value
2019-05-14T00:04:31.570Z,9.82
2019-05-14T00:09:36.325Z,9.73
2019-05-14T00:14:43.647Z,9.79
2019-05-14T00:19:46.278Z,9.84
2019-05-14T00:24:51.999Z,9.69
2019-05-14T00:29:56.267Z,9.80
2019-05-14T00:35:02.007Z,9.97
2019-05-14T00:40:06.187Z,9.99
2019-05-14T00:45:11.575Z,10.09
2019-05-14T00:50:15.990Z,10.01
2019-05-14T00:55:22.120Z,9.97
2019-05-14T01:00:25.933Z,9.99
2019-05-14T01:05:32.116Z,10.04
2019-05-14T01:10:36.650Z,10.21
2019-05-14T01:15:41.472Z,10.19
2019-05-14T01:20:45.641Z,10.14
2019-05-14T01:25:51.644Z,10.10
2019-05-14T01:30:55.419Z,10.23
2019-05-14T01:36:01.792Z,10.10
2019-05-14T01:41:05.379Z,10.16
2019-05-14T01:46:11.997Z,10.09
2019-05-14T01:51:15.305Z,10.04
2019-05-14T01:56:21.324Z,10.05
2019-05-14T02:01:25.607Z,10.10
2019-05-14T02:06:33.059Z,10.04
2019-05-14T02:11:37.305Z,9.99
2019-05-14T02:16:42.374Z,9.97
2019-05-14T02:21:46.718Z,9.99
2019-05-14T02:26:51.434Z,9.95
2019-05-14T02:31:58.830Z,9.98
2019-05-14T02:37:01.642Z,9.94
2019-05-14T02:42:09.027Z,9.96
2019-05-14T02:47:11.547Z,9.91
2019-05-14T02:52:15.603Z,9.94
2019-05-14T02:57:20.339Z,9.86
2019-05-14T03:02:24.539Z,9.86
2019-05-14T03:07:29.782Z,9.84
2019-05-14T03:12:35.097Z,9.82
2019-05-14T03:17:40.327Z,9.80
2019-05-14T03:22:58.697Z,9.77
2019-05-14T03:27:50.751Z,9.80
2019-05-14T03:32:54.931Z,9.85
2019-05-14T03:38:00.439Z,9.81
2019-05-14T03:43:04.891Z,9.80
2019-05-14T03:48:10.400Z,9.90
2019-05-14T03:53:14.988Z,9.84
2019-05-14T03:58:21.050Z,9.80
2019-05-14T04:03:25.114Z,9.71
2019-05-14T04:08:30.412Z,9.66
2019-05-14T04:13:35.969Z,9.65
2019-05-14T04:18:40.945Z,9.52
2019-05-14T04:23:50.796Z,9.46
2019-05-14T04:28:55.439Z,9.47
2019-05-14T04:34:01.617Z,9.37
2019-05-14T04:39:09.454Z,9.43
2019-05-14T04:44:15.101Z,9.35
2019-05-14T04:49:20.032Z,9.35
2019-05-14T04:54:24.290Z,9.36
2019-05-14T04:59:29.957Z,9.38
2019-05-14T05:04:34.737Z,9.37
2019-05-14T05:09:39.750Z,9.43
2019-05-14T05:14:45.332Z,9.56
2019-05-14T05:19:51.595Z,9.58
2019-05-14T05:24:55.174Z,9.66
2019-05-14T05:29:59.367Z,9.72
2019-05-14T05:35:03.538Z,9.81
2019-05-14T05:40:09.128Z,9.94
2019-05-14T05:45:13.867Z,10.00
2019-05-14T05:50:19.335Z,10.10
2019-05-14T05:55:23.614Z,10.19
2019-05-14T06:00:33.954Z,10.33
2019-05-14T06:05:39.052Z,10.51
2019-05-14T06:10:44.251Z,10.61
2019-05-14T06:15:51.458Z,10.77
2019-05-14T06:20:54.191Z,10.89
2019-05-14T06:25:59.741Z,11.11
2019-05-14T06:31:04.602Z,11.20
2019-05-14T06:36:08.967Z,11.49
2019-05-14T06:41:13.228Z,11.52
2019-05-14T06:46:19.350Z,11.69
2019-05-14T06:51:23.183Z,11.74
2019-05-14T06:56:28.238Z,11.74
2019-05-14T07:01:32.539Z,11.55
2019-05-14T07:06:38.933Z,11.49
2019-05-14T07:11:42.583Z,11.36
2019-05-14T07:16:48.500Z,11.46
2019-05-14T07:21:52.561Z,11.74
2019-05-14T07:26:58.719Z,11.61
2019-05-14T07:32:02.533Z,11.94
2019-05-14T07:37:09.051Z,12.07
2019-05-14T07:42:12.309Z,12.29
2019-05-14T07:47:18.549Z,12.42
2019-05-14T07:52:22.100Z,12.42
2019-05-14T07:57:28.320Z,12.43
2019-05-14T08:02:32.197Z,12.65
2019-05-14T08:07:38.625Z,13.12
2019-05-14T08:12:42.018Z,13.24
2019-05-14T08:17:48.294Z,13.38
2019-05-14T08:22:51.893Z,13.55
2019-05-14T08:27:55.975Z,13.54
2019-05-14T08:33:00.107Z,13.58
2019-05-14T08:38:08.364Z,13.73
2019-05-14T08:43:10.057Z,13.73
2019-05-14T08:48:14.177Z,13.71
2019-05-14T08:53:18.706Z,13.69
2019-05-14T08:58:22.998Z,13.64
2019-05-14T09:03:28.758Z,13.91
2019-05-14T09:08:33.252Z,13.79
2019-05-14T09:13:38.301Z,14.14
2019-05-14T09:18:42.851Z,14.02
2019-05-14T09:23:48.162Z,14.00
2019-05-14T09:28:52.495Z,14.03
2019-05-14T09:33:58.459Z,14.16
2019-05-14T09:39:02.981Z,14.58
2019-05-14T09:44:09.170Z,14.18
2019-05-14T09:49:13.017Z,14.48
2019-05-14T09:54:19.275Z,14.80
2019-05-14T09:59:23.099Z,14.70
2019-05-14T10:04:27.184Z,14.33
2019-05-14T10:09:31.337Z,14.66
2019-05-14T10:14:35.429Z,14.38
2019-05-14T10:19:39.704Z,14.96
2019-05-14T10:24:43.987Z,15.17
2019-05-14T10:29:48.302Z,14.78
2019-05-14T10:34:52.499Z,14.76
2019-05-14T10:39:58.652Z,15.27
2019-05-14T10:45:02.294Z,15.28
2019-05-14T10:50:13.371Z,14.92
2019-05-14T10:55:13.348Z,14.85
2019-05-14T11:00:18.608Z,14.24
2019-05-14T11:05:23.036Z,14.35
2019-05-14T11:10:29.659Z,14.17
2019-05-14T11:15:32.959Z,15.16
2019-05-14T11:20:41.727Z,15.13
2019-05-14T11:25:42.999Z,14.60
2019-05-14T11:30:49.378Z,14.15
2019-05-14T11:35:52.948Z,14.92
2019-05-14T11:40:58.762Z,14.59
2019-05-14T11:46:02.785Z,15.04
2019-05-14T11:51:09.074Z,14.81
2019-05-14T11:56:12.653Z,14.87
2019-05-14T12:01:18.821Z,15.24
2019-05-14T12:06:34.163Z,15.28
2019-05-14T12:11:38.615Z,14.82
2019-05-14T12:16:42.917Z,15.49
2019-05-14T12:22:02.301Z,14.85
2019-05-14T12:26:53.951Z,14.42
2019-05-14T12:31:58.641Z,14.77
2019-05-14T12:37:02.974Z,14.37
2019-05-14T12:42:10.543Z,14.62
2019-05-14T12:47:12.814Z,14.44
2019-05-14T12:52:24.785Z,14.33
2019-05-14T12:57:22.819Z,14.67
2019-05-14T13:02:29.448Z,15.49
2019-05-14T13:07:32.751Z,15.16
2019-05-14T13:12:39.090Z,15.87
2019-05-14T13:17:43.585Z,15.42
2019-05-14T13:22:50.321Z,15.95
2019-05-14T13:27:54.709Z,15.46
2019-05-14T13:32:59.290Z,15.34
2019-05-14T13:38:03.643Z,14.98
2019-05-14T13:43:09.819Z,14.72
2019-05-14T13:48:13.614Z,15.15
2019-05-14T13:53:18.895Z,14.92
2019-05-14T13:58:23.241Z,15.03
2019-05-14T14:03:29.188Z,15.10
2019-05-14T14:08:33.108Z,15.30
2019-05-14T14:13:39.201Z,15.42
2019-05-14T14:18:42.939Z,15.56
2019-05-14T14:23:49.446Z,15.34
2019-05-14T14:28:54.052Z,15.11
2019-05-14T14:33:58.161Z,14.75
2019-05-14T14:39:02.319Z,15.02
2019-05-14T14:44:08.761Z,15.02
2019-05-14T14:49:12.314Z,15.46
2019-05-14T14:54:16.602Z,15.74
2019-05-14T14:59:20.841Z,15.52
2019-05-14T15:04:24.885Z,15.35
2019-05-14T15:09:29.037Z,15.43
2019-05-14T15:14:33.185Z,15.02
2019-05-14T15:19:39.490Z,15.11
2019-05-14T15:24:43.388Z,14.83
2019-05-14T15:29:48.826Z,14.87
2019-05-14T15:34:53.354Z,14.82
2019-05-14T15:39:57.493Z,14.74
2019-05-14T15:45:01.622Z,14.80
2019-05-14T15:50:08.924Z,14.72
2019-05-14T15:55:12.685Z,14.86
2019-05-14T16:00:19.565Z,15.00
2019-05-14T16:05:22.993Z,14.64
2019-05-14T16:10:30.928Z,14.54
2019-05-14T16:15:33.159Z,14.52
2019-05-14T16:20:39.253Z,14.47
2019-05-14T16:25:43.208Z,14.46
2019-05-14T16:30:49.679Z,14.33
2019-05-14T16:35:53.132Z,14.31
2019-05-14T16:40:59.633Z,14.24
2019-05-14T16:46:03.005Z,14.24
2019-05-14T16:51:08.903Z,14.25
2019-05-14T16:56:13.292Z,14.21
2019-05-14T17:01:19.310Z,13.86
2019-05-14T17:06:23.268Z,13.95
2019-05-14T17:11:28.377Z,13.90
2019-05-14T17:16:38.158Z,13.82
2019-05-14T17:21:42.322Z,13.80
2019-05-14T17:26:48.746Z,13.64
2019-05-14T17:31:52.369Z,13.65
2019-05-14T17:36:59.198Z,13.66
2019-05-14T17:42:03.251Z,13.59
2019-05-14T17:47:07.589Z,13.43
2019-05-14T17:52:11.913Z,13.30
2019-05-14T17:57:16.090Z,13.30
2019-05-14T18:02:20.383Z,13.35
2019-05-14T18:07:24.485Z,13.34
2019-05-14T18:12:30.514Z,13.34
2019-05-14T18:17:34.466Z,13.37
2019-05-14T18:22:42.225Z,13.33
2019-05-14T18:27:44.380Z,13.33
2019-05-14T18:32:48.807Z,13.32
2019-05-14T18:37:52.945Z,13.23
2019-05-14T18:42:59.108Z,13.07
2019-05-14T18:48:02.782Z,12.85
2019-05-14T18:53:09.024Z,12.64
2019-05-14T18:58:12.967Z,12.64
2019-05-14T19:03:19.680Z,12.49
2019-05-14T19:08:22.985Z,12.39
2019-05-14T19:13:28.183Z,12.35
2019-05-14T19:18:33.100Z,12.23
2019-05-14T19:23:38.438Z,12.12
2019-05-14T19:28:43.020Z,12.05
2019-05-14T19:33:48.766Z,11.97
2019-05-14T19:38:52.977Z,11.83
2019-05-14T19:43:59.457Z,11.83
2019-05-14T19:49:03.196Z,11.70
2019-05-14T19:54:08.175Z,11.70
2019-05-14T19:59:12.484Z,11.85
2019-05-14T20:04:18.346Z,11.68
2019-05-14T20:09:22.616Z,11.78
2019-05-14T20:14:28.711Z,11.73
2019-05-14T20:19:32.510Z,11.70
2019-05-14T20:24:41.165Z,11.67
2019-05-14T20:29:43.442Z,11.63
2019-05-14T20:34:48.706Z,11.82
2019-05-14T20:39:52.872Z,11.78
2019-05-14T20:44:57.033Z,11.75
2019-05-14T20:50:01.259Z,11.61
2019-05-14T20:55:05.914Z,11.54
2019-05-14T21:00:11.850Z,11.57
2019-05-14T21:05:16.183Z,11.49
2019-05-14T21:10:20.485Z,11.51
2019-05-14T21:15:24.591Z,11.57
2019-05-14T21:20:28.731Z,11.54
2019-05-14T21:25:33.305Z,11.48
2019-05-14T21:30:38.866Z,11.58
2019-05-14T21:35:43.229Z,11.54
2019-05-14T21:40:49.762Z,11.60
2019-05-14T21:45:53.134Z,11.68
2019-05-14T21:51:00.548Z,11.59
2019-05-14T21:56:03.037Z,11.62
2019-05-14T22:01:07.961Z,11.57
2019-05-14T22:06:12.259Z,11.56
2019-05-14T22:11:18.659Z,11.49
2019-05-14T22:16:22.211Z,11.55
2019-05-14T22:21:26.341Z,11.53
2019-05-14T22:26:30.477Z,11.60
2019-05-14T22:31:34.754Z,11.56
2019-05-14T22:36:38.988Z,11.59
2019-05-14T22:41:43.021Z,11.45
2019-05-14T22:46:49.009Z,11.47
2019-05-14T22:51:52.844Z,11.50
2019-05-14T22:56:58.915Z,11.41
2019-05-14T23:02:02.722Z,11.45
2019-05-14T23:07:08.222Z,11.46
2019-05-14T23:12:12.523Z,11.45
2019-05-14T23:17:16.529Z,11.37
2019-05-14T23:22:20.559Z,11.39
2019-05-14T23:27:24.762Z,11.38
2019-05-14T23:32:28.922Z,11.35
2019-05-14T23:37:32.906Z,11.31
2019-05-14T23:42:39.194Z,11.32
2019-05-14T23:47:42.717Z,11.26
2019-05-14T23:52:49.221Z,11.23
2019-05-14T23:57:52.447Z,11.28
